Station Historical Data
Daily Summary for February 27, 2012 Units:  Both    English   Metric
« Previous Day
Next Day »
Daily Weekly Monthly Yearly Custom
  High: Low: Average:
Temperature: 66.9 °F /  19.4 °C 43.8 °F /  6.6 °C 55.7 °F /  13.2 °C
Dew Point: 46.1 °F /  7.8 °C 30.9 °F /  -0.6 °C 39.3 °F /  4.1 °C
Humidity: 70% 38% 55%
Wind Speed: 11.0mph /  17.7km/h - 1.8mph /  2.9km/h
Wind Gust: 11.0mph /  17.7km/h - -
Wind- - SE
Pressure: 30.39 in /  1029 hPa 30.28 in /  1025.3 hPa -
Precipitation: 0.00 in /  0 mm    
Historical Graphs
 
 
Tabular Data for February 27, 2012
Time Temperature Dew Point Pressure Wind Wind Speed Wind Gust Humidity Rainfall Rate (Hourly) Conditions
00:00 49.9 °F /  9.9 °C 31.5 °F /  -0.3 °C 30.28in /  1025.3hPa South 2.0mph /  3.2km/h 4.0mph /  6.4km/h 49% 0.00in /  0mm
00:01 50.0 °F /  10 °C 31.6 °F /  -0.2 °C 30.29in /  1025.6hPa SSW 3.0mph /  4.8km/h 4.0mph /  6.4km/h 49% 0.00in /  0mm
00:06 50.5 °F /  10.3 °C 31.0 °F /  -0.6 °C 30.29in /  1025.6hPa South 3.0mph /  4.8km/h 5.0mph /  8km/h 47% 0.00in /  0mm
00:11 50.9 °F /  10.5 °C 30.9 °F /  -0.6 °C 30.28in /  1025.3hPa South 4.0mph /  6.4km/h 6.0mph /  9.7km/h 46% 0.00in /  0mm
00:16 51.0 °F /  10.6 °C 31.5 °F /  -0.3 °C 30.28in /  1025.3hPa South 2.0mph /  3.2km/h 4.0mph /  6.4km/h 47% 0.00in /  0mm
00:21 50.9 °F /  10.5 °C 31.9 °F /  -0.1 °C 30.28in /  1025.3hPa South 2.0mph /  3.2km/h 5.0mph /  8km/h 48% 0.00in /  0mm
00:26 50.6 °F /  10.3 °C 32.2 °F /  0.1 °C 30.28in /  1025.3hPa South 2.0mph /  3.2km/h 4.0mph /  6.4km/h 49% 0.00in /  0mm
00:31 50.3 °F /  10.2 °C 32.4 °F /  0.2 °C 30.28in /  1025.3hPa SE 4.0mph /  6.4km/h 4.0mph /  6.4km/h 50% 0.00in /  0mm
00:36 49.8 °F /  9.9 °C 32.4 °F /  0.2 °C 30.28in /  1025.3hPa SSE 2.0mph /  3.2km/h 3.0mph /  4.8km/h 51% 0.00in /  0mm
00:41 49.3 °F /  9.6 °C 32.0 °F /  0 °C 30.28in /  1025.3hPa SSE 1.0mph /  1.6km/h 2.0mph /  3.2km/h 51% 0.00in /  0mm
00:46 49.3 °F /  9.6 °C 32.0 °F /  0 °C 30.28in /  1025.3hPa SSE 2.0mph /  3.2km/h 3.0mph /  4.8km/h 51% 0.00in /  0mm
00:51 48.8 °F /  9.3 °C 32.4 °F /  0.2 °C 30.28in /  1025.3hPa SE 3.0mph /  4.8km/h 3.0mph /  4.8km/h 53% 0.00in /  0mm
00:57 47.9 °F /  8.8 °C 32.5 °F /  0.3 °C 30.28in /  1025.3hPa SSE 2.0mph /  3.2km/h 2.0mph /  3.2km/h 55% 0.00in /  0mm
01:02 47.5 °F /  8.6 °C 32.6 °F /  0.3 °C 30.28in /  1025.3hPa SSE 2.0mph /  3.2km/h 3.0mph /  4.8km/h 56% 0.00in /  0mm
01:07 47.6 °F /  8.7 °C 32.7 °F /  0.4 °C 30.29in /  1025.6hPa SSE 2.0mph /  3.2km/h 3.0mph /  4.8km/h 56% 0.00in /  0mm
01:12 47.6 °F /  8.7 °C 32.7 °F /  0.4 °C 30.28in /  1025.3hPa SSE 4.0mph /  6.4km/h 4.0mph /  6.4km/h 56% 0.00in /  0mm
01:17 47.6 °F /  8.7 °C 32.7 °F /  0.4 °C 30.29in /  1025.6hPa SE 3.0mph /  4.8km/h 3.0mph /  4.8km/h 56% 0.00in /  0mm
01:22 47.5 °F /  8.6 °C 33.0 °F /  0.6 °C 30.29in /  1025.6hPa SE 3.0mph /  4.8km/h 4.0mph /  6.4km/h 57% 0.00in /  0mm
01:27 47.3 °F /  8.5 °C 32.8 °F /  0.4 °C 30.29in /  1025.6hPa SSE 1.0mph /  1.6km/h 3.0mph /  4.8km/h 57% 0.00in /  0mm
01:32 47.3 °F /  8.5 °C 32.8 °F /  0.4 °C 30.29in /  1025.6hPa South 1.0mph /  1.6km/h 2.0mph /  3.2km/h 57% 0.00in /  0mm
01:37 47.5 °F /  8.6 °C 32.6 °F /  0.3 °C 30.29in /  1025.6hPa SSE 1.0mph /  1.6km/h 2.0mph /  3.2km/h 56% 0.00in /  0mm
01:42 47.6 °F /  8.7 °C 32.7 °F /  0.4 °C 30.30in /  1026hPa SE 1.0mph /  1.6km/h 3.0mph /  4.8km/h 56% 0.00in /  0mm
01:47 47.4 °F /  8.6 °C 32.5 °F /  0.3 °C 30.30in /  1026hPa SE 1.0mph /  1.6km/h 1.0mph /  1.6km/h 56% 0.00in /  0mm
01:52 47.0 °F /  8.3 °C 32.1 °F /  0.1 °C 30.30in /  1026hPa SSE 1.0mph /  1.6km/h 2.0mph /  3.2km/h 56% 0.00in /  0mm
01:57 47.1 °F /  8.4 °C 32.2 °F /  0.1 °C 30.30in /  1026hPa SSE 2.0mph /  3.2km/h 2.0mph /  3.2km/h 56% 0.00in /  0mm
02:02 47.1 °F /  8.4 °C 32.2 °F /  0.1 °C 30.31in /  1026.3hPa Calm   2.0mph /  3.2km/h 56% 0.00in /  0mm
02:07 46.9 °F /  8.3 °C 32.0 °F /  0 °C 30.31in /  1026.3hPa SSW 1.0mph /  1.6km/h 1.0mph /  1.6km/h 56% 0.00in /  0mm
02:12 46.9 °F /  8.3 °C 32.0 °F /  0 °C 30.31in /  1026.3hPa SE 1.0mph /  1.6km/h 2.0mph /  3.2km/h 56% 0.00in /  0mm
02:17 46.9 °F /  8.3 °C 32.0 °F /  0 °C 30.31in /  1026.3hPa SSE 1.0mph /  1.6km/h 2.0mph /  3.2km/h 56% 0.00in /  0mm
02:22 46.6 °F /  8.1 °C 32.2 °F /  0.1 °C 30.31in /  1026.3hPa SSE 1.0mph /  1.6km/h 1.0mph /  1.6km/h 57% 0.00in /  0mm
02:27 46.4 °F /  8 °C 32.0 °F /  0 °C 30.31in /  1026.3hPa SSE 1.0mph /  1.6km/h 2.0mph /  3.2km/h 57% 0.00in /  0mm
02:32 46.7 °F /  8.2 °C 32.3 °F /  0.2 °C 30.31in /  1026.3hPa SE 1.0mph /  1.6km/h 2.0mph /  3.2km/h 57% 0.00in /  0mm
02:37 46.6 °F /  8.1 °C 32.2 °F /  0.1 °C 30.31in /  1026.3hPa SSE 1.0mph /  1.6km/h 2.0mph /  3.2km/h 57% 0.00in /  0mm
02:42 46.8 °F /  8.2 °C 32.4 °F /  0.2 °C 30.31in /  1026.3hPa SSE 1.0mph /  1.6km/h 2.0mph /  3.2km/h 57% 0.00in /  0mm
02:47 46.7 °F /  8.2 °C 32.3 °F /  0.2 °C 30.31in /  1026.3hPa SSE 1.0mph /  1.6km/h 2.0mph /  3.2km/h 57% 0.00in /  0mm
02:52 46.6 °F /  8.1 °C 32.2 °F /  0.1 °C 30.31in /  1026.3hPa SE 1.0mph /  1.6km/h 1.0mph /  1.6km/h 57% 0.00in /  0mm
02:57 46.6 °F /  8.1 °C 32.2 °F /  0.1 °C 30.31in /  1026.3hPa SSE 1.0mph /  1.6km/h 2.0mph /  3.2km/h 57% 0.00in /  0mm
03:02 46.4 °F /  8 °C 32.0 °F /  0 °C 30.31in /  1026.3hPa Calm   2.0mph /  3.2km/h 57% 0.00in /  0mm
03:07 46.1 °F /  7.8 °C 32.2 °F /  0.1 °C 30.31in /  1026.3hPa Calm     58% 0.00in /  0mm
03:12 46.0 °F /  7.8 °C 32.1 °F /  0.1 °C 30.31in /  1026.3hPa Calm     58% 0.00in /  0mm
03:17 45.6 °F /  7.6 °C 32.1 °F /  0.1 °C 30.31in /  1026.3hPa Calm     59% 0.00in /  0mm
03:23 45.1 °F /  7.3 °C 32.1 °F /  0.1 °C 30.31in /  1026.3hPa Calm     60% 0.00in /  0mm
03:28 45.1 °F /  7.3 °C 32.1 °F /  0.1 °C 30.30in /  1026hPa Calm   1.0mph /  1.6km/h 60% 0.00in /  0mm
03:33 45.1 °F /  7.3 °C 32.5 °F /  0.3 °C 30.31in /  1026.3hPa Calm   1.0mph /  1.6km/h 61% 0.00in /  0mm
03:38 44.9 °F /  7.2 °C 32.3 °F /  0.2 °C 30.31in /  1026.3hPa Calm     61% 0.00in /  0mm
03:43 44.7 °F /  7.1 °C 32.5 °F /  0.3 °C 30.30in /  1026hPa Calm     62% 0.00in /  0mm
03:48 44.5 °F /  6.9 °C 32.3 °F /  0.2 °C 30.30in /  1026hPa Calm   1.0mph /  1.6km/h 62% 0.00in /  0mm
03:53 44.1 °F /  6.7 °C 32.3 °F /  0.2 °C 30.30in /  1026hPa SE 1.0mph /  1.6km/h 1.0mph /  1.6km/h 63% 0.00in /  0mm
03:58 44.0 °F /  6.7 °C 32.6 °F /  0.3 °C 30.30in /  1026hPa SE 1.0mph /  1.6km/h 1.0mph /  1.6km/h 64% 0.00in /  0mm
04:03 43.8 °F /  6.6 °C 32.8 °F /  0.4 °C 30.30in /  1026hPa ESE 3.0mph /  4.8km/h 3.0mph /  4.8km/h 65% 0.00in /  0mm
04:08 44.2 °F /  6.8 °C 33.2 °F /  0.7 °C 30.30in /  1026hPa SE 2.0mph /  3.2km/h 2.0mph /  3.2km/h 65% 0.00in /  0mm
04:13 44.7 °F /  7.1 °C 33.3 °F /  0.7 °C 30.31in /  1026.3hPa Calm   2.0mph /  3.2km/h 64% 0.00in /  0mm
04:18 44.7 °F /  7.1 °C 32.9 °F /  0.5 °C 30.31in /  1026.3hPa Calm     63% 0.00in /  0mm
04:23 44.9 °F /  7.2 °C 32.7 °F /  0.4 °C 30.31in /  1026.3hPa Calm   2.0mph /  3.2km/h 62% 0.00in /  0mm
04:28 44.9 °F /  7.2 °C 33.1 °F /  0.6 °C 30.31in /  1026.3hPa Calm     63% 0.00in /  0mm
04:33 45.1 °F /  7.3 °C 33.3 °F /  0.7 °C 30.31in /  1026.3hPa SE 1.0mph /  1.6km/h 2.0mph /  3.2km/h 63% 0.00in /  0mm
04:38 45.5 °F /  7.5 °C 33.7 °F /  0.9 °C 30.31in /  1026.3hPa Calm   1.0mph /  1.6km/h 63% 0.00in /  0mm
04:43 45.6 °F /  7.6 °C 33.8 °F /  1 °C 30.32in /  1026.6hPa South 1.0mph /  1.6km/h 1.0mph /  1.6km/h 63% 0.00in /  0mm
04:48 45.7 °F /  7.6 °C 34.2 °F /  1.2 °C 30.32in /  1026.6hPa SE 1.0mph /  1.6km/h 1.0mph /  1.6km/h 64% 0.00in /  0mm
04:53 45.9 °F /  7.7 °C 34.8 °F /  1.6 °C 30.32in /  1026.6hPa SSE 1.0mph /  1.6km/h 2.0mph /  3.2km/h 65% 0.00in /  0mm
04:58 46.2 °F /  7.9 °C 35.1 °F /  1.7 °C 30.32in /  1026.6hPa SE 1.0mph /  1.6km/h 2.0mph /  3.2km/h 65% 0.00in /  0mm
05:03 46.4 °F /  8 °C 35.3 °F /  1.8 °C 30.32in /  1026.6hPa SSE 1.0mph /  1.6km/h 2.0mph /  3.2km/h 65% 0.00in /  0mm
05:08 46.6 °F /  8.1 °C 35.1 °F /  1.7 °C 30.32in /  1026.6hPa SSE 1.0mph /  1.6km/h 3.0mph /  4.8km/h 64% 0.00in /  0mm
05:13 46.8 °F /  8.2 °C 34.5 °F /  1.4 °C 30.33in /  1027hPa South 1.0mph /  1.6km/h 2.0mph /  3.2km/h 62% 0.00in /  0mm
05:18 46.9 °F /  8.3 °C 35.4 °F /  1.9 °C 30.33in /  1027hPa SSE 1.0mph /  1.6km/h 3.0mph /  4.8km/h 64% 0.00in /  0mm
05:23 46.9 °F /  8.3 °C 35.4 °F /  1.9 °C 30.32in /  1026.6hPa Calm   2.0mph /  3.2km/h 64% 0.00in /  0mm
05:28 47.0 °F /  8.3 °C 35.9 °F /  2.2 °C 30.32in /  1026.6hPa SSE 2.0mph /  3.2km/h 2.0mph /  3.2km/h 65% 0.00in /  0mm
05:33 47.1 °F /  8.4 °C 36.0 °F /  2.2 °C 30.33in /  1027hPa South 2.0mph /  3.2km/h 3.0mph /  4.8km/h 65% 0.00in /  0mm
05:38 47.3 °F /  8.5 °C 36.2 °F /  2.3 °C 30.32in /  1026.6hPa SSE 2.0mph /  3.2km/h 3.0mph /  4.8km/h 65% 0.00in /  0mm
05:43 47.3 °F /  8.5 °C 36.5 °F /  2.5 °C 30.33in /  1027hPa SSE 3.0mph /  4.8km/h 3.0mph /  4.8km/h 66% 0.00in /  0mm
05:48 47.3 °F /  8.5 °C 36.5 °F /  2.5 °C 30.33in /  1027hPa SSE 2.0mph /  3.2km/h 5.0mph /  8km/h 66% 0.00in /  0mm
05:53 47.2 °F /  8.4 °C 36.0 °F /  2.2 °C 30.33in /  1027hPa South 1.0mph /  1.6km/h 2.0mph /  3.2km/h 65% 0.00in /  0mm
05:58 47.3 °F /  8.5 °C 35.8 °F /  2.1 °C 30.33in /  1027hPa SSW 1.0mph /  1.6km/h 1.0mph /  1.6km/h 64% 0.00in /  0mm
06:04 47.4 °F /  8.6 °C 35.8 °F /  2.1 °C 30.34in /  1027.3hPa Calm   1.0mph /  1.6km/h 64% 0.00in /  0mm
06:09 47.4 °F /  8.6 °C 35.8 °F /  2.1 °C 30.34in /  1027.3hPa SE 1.0mph /  1.6km/h 3.0mph /  4.8km/h 64% 0.00in /  0mm
06:14 47.3 °F /  8.5 °C 35.8 °F /  2.1 °C 30.34in /  1027.3hPa SE 1.0mph /  1.6km/h 2.0mph /  3.2km/h 64% 0.00in /  0mm
06:19 47.1 °F /  8.4 °C 35.6 °F /  2 °C 30.34in /  1027.3hPa Calm     64% 0.00in /  0mm
06:24 46.9 °F /  8.3 °C 35.8 °F /  2.1 °C 30.34in /  1027.3hPa Calm     65% 0.00in /  0mm
06:29 46.5 °F /  8.1 °C 35.8 °F /  2.1 °C 30.34in /  1027.3hPa Calm     66% 0.00in /  0mm
06:34 46.3 °F /  7.9 °C 36.0 °F /  2.2 °C 30.34in /  1027.3hPa Calm   1.0mph /  1.6km/h 67% 0.00in /  0mm
06:39 46.1 °F /  7.8 °C 35.8 °F /  2.1 °C 30.34in /  1027.3hPa SE 2.0mph /  3.2km/h 2.0mph /  3.2km/h 67% 0.00in /  0mm
06:40 46.1 °F /  7.8 °C 35.8 °F /  2.1 °C 30.34in /  1027.3hPa SE 2.0mph /  3.2km/h 2.0mph /  3.2km/h 67% 0.00in /  0mm
06:45 46.0 °F /  7.8 °C 35.7 °F /  2.1 °C 30.34in /  1027.3hPa SE 1.0mph /  1.6km/h 2.0mph /  3.2km/h 67% 0.00in /  0mm
06:50 45.6 °F /  7.6 °C 35.7 °F /  2.1 °C 30.35in /  1027.7hPa Calm   1.0mph /  1.6km/h 68% 0.00in /  0mm
06:55 45.5 °F /  7.5 °C 35.6 °F /  2 °C 30.35in /  1027.7hPa Calm     68% 0.00in /  0mm
07:00 45.6 °F /  7.6 °C 35.3 °F /  1.8 °C 30.35in /  1027.7hPa Calm     67% 0.00in /  0mm
07:05 45.4 °F /  7.4 °C 35.5 °F /  1.9 °C 30.35in /  1027.7hPa Calm     68% 0.00in /  0mm
07:10 45.3 °F /  7.4 °C 35.4 °F /  1.9 °C 30.36in /  1028hPa Calm   1.0mph /  1.6km/h 68% 0.00in /  0mm
07:15 45.4 °F /  7.4 °C 35.5 °F /  1.9 °C 30.35in /  1027.7hPa Calm     68% 0.00in /  0mm
07:20 45.5 °F /  7.5 °C 35.6 °F /  2 °C 30.35in /  1027.7hPa Calm   1.0mph /  1.6km/h 68% 0.00in /  0mm
07:25 45.4 °F /  7.4 °C 35.5 °F /  1.9 °C 30.36in /  1028hPa Calm     68% 0.00in /  0mm
07:30 45.4 °F /  7.4 °C 35.5 °F /  1.9 °C 30.36in /  1028hPa Calm   1.0mph /  1.6km/h 68% 0.00in /  0mm
07:35 45.3 °F /  7.4 °C 35.4 °F /  1.9 °C 30.36in /  1028hPa Calm     68% 0.00in /  0mm
07:40 45.1 °F /  7.3 °C 35.2 °F /  1.8 °C 30.36in /  1028hPa Calm     68% 0.00in /  0mm
07:45 44.9 °F /  7.2 °C 35.4 °F /  1.9 °C 30.36in /  1028hPa Calm     69% 0.00in /  0mm
07:50 44.9 °F /  7.2 °C 35.4 °F /  1.9 °C 30.36in /  1028hPa Calm     69% 0.00in /  0mm
07:55 45.1 °F /  7.3 °C 35.9 °F /  2.2 °C 30.36in /  1028hPa Calm   1.0mph /  1.6km/h 70% 0.00in /  0mm
08:00 45.1 °F /  7.3 °C 35.9 °F /  2.2 °C 30.36in /  1028hPa Calm   1.0mph /  1.6km/h 70% 0.00in /  0mm
08:05 45.6 °F /  7.6 °C 36.4 °F /  2.4 °C 30.36in /  1028hPa SE 2.0mph /  3.2km/h 2.0mph /  3.2km/h 70% 0.00in /  0mm
08:10 46.7 °F /  8.2 °C 36.7 °F /  2.6 °C 30.36in /  1028hPa SE 1.0mph /  1.6km/h 2.0mph /  3.2km/h 68% 0.00in /  0mm
08:15 47.7 °F /  8.7 °C 37.3 °F /  2.9 °C 30.36in /  1028hPa SE 2.0mph /  3.2km/h 3.0mph /  4.8km/h 67% 0.00in /  0mm
08:20 48.5 °F /  9.2 °C 37.3 °F /  2.9 °C 30.36in /  1028hPa SE 2.0mph /  3.2km/h 2.0mph /  3.2km/h 65% 0.00in /  0mm
08:26 49.2 °F /  9.6 °C 37.6 °F /  3.1 °C 30.37in /  1028.3hPa SE 1.0mph /  1.6km/h 3.0mph /  4.8km/h 64% 0.00in /  0mm
08:31 49.9 °F /  9.9 °C 37.8 °F /  3.2 °C 30.37in /  1028.3hPa SE 3.0mph /  4.8km/h 4.0mph /  6.4km/h 63% 0.00in /  0mm
08:36 50.4 °F /  10.2 °C 38.3 °F /  3.5 °C 30.37in /  1028.3hPa SE 3.0mph /  4.8km/h 4.0mph /  6.4km/h 63% 0.00in /  0mm
08:41 51.0 °F /  10.6 °C 38.5 °F /  3.6 °C 30.37in /  1028.3hPa SSE 3.0mph /  4.8km/h 4.0mph /  6.4km/h 62% 0.00in /  0mm
08:46 51.4 °F /  10.8 °C 38.8 °F /  3.8 °C 30.37in /  1028.3hPa SE 1.0mph /  1.6km/h 4.0mph /  6.4km/h 62% 0.00in /  0mm
08:51 51.6 °F /  10.9 °C 39.8 °F /  4.3 °C 30.38in /  1028.7hPa SE 2.0mph /  3.2km/h 3.0mph /  4.8km/h 64% 0.00in /  0mm
08:56 51.9 °F /  11.1 °C 39.7 °F /  4.3 °C 30.38in /  1028.7hPa South 3.0mph /  4.8km/h 5.0mph /  8km/h 63% 0.00in /  0mm
09:01 52.5 °F /  11.4 °C 40.3 °F /  4.6 °C 30.38in /  1028.7hPa South 2.0mph /  3.2km/h 4.0mph /  6.4km/h 63% 0.00in /  0mm
09:06 53.0 °F /  11.7 °C 39.5 °F /  4.2 °C 30.38in /  1028.7hPa SE 3.0mph /  4.8km/h 5.0mph /  8km/h 60% 0.00in /  0mm
09:11 53.5 °F /  11.9 °C 40.0 °F /  4.4 °C 30.38in /  1028.7hPa SSE 4.0mph /  6.4km/h 5.0mph /  8km/h 60% 0.00in /  0mm
09:16 53.6 °F /  12 °C 40.1 °F /  4.5 °C 30.38in /  1028.7hPa SE 2.0mph /  3.2km/h 5.0mph /  8km/h 60% 0.00in /  0mm
09:21 54.1 °F /  12.3 °C 40.5 °F /  4.7 °C 30.38in /  1028.7hPa SSE 2.0mph /  3.2km/h 4.0mph /  6.4km/h 60% 0.00in /  0mm
09:26 54.9 °F /  12.7 °C 40.4 °F /  4.7 °C 30.38in /  1028.7hPa SE 3.0mph /  4.8km/h 6.0mph /  9.7km/h 58% 0.00in /  0mm
09:31 55.2 °F /  12.9 °C 40.7 °F /  4.8 °C 30.38in /  1028.7hPa SW 1.0mph /  1.6km/h 4.0mph /  6.4km/h 58% 0.00in /  0mm
09:36 55.2 °F /  12.9 °C 41.1 °F /  5.1 °C 30.39in /  1029hPa WSW 3.0mph /  4.8km/h 5.0mph /  8km/h 59% 0.00in /  0mm
09:41 55.0 °F /  12.8 °C 40.5 °F /  4.7 °C 30.39in /  1029hPa WSW 3.0mph /  4.8km/h 4.0mph /  6.4km/h 58% 0.00in /  0mm
09:46 55.1 °F /  12.8 °C 41.9 °F /  5.5 °C 30.38in /  1028.7hPa SW 3.0mph /  4.8km/h 4.0mph /  6.4km/h 61% 0.00in /  0mm
09:51 55.4 °F /  13 °C 41.3 °F /  5.2 °C 30.38in /  1028.7hPa South 4.0mph /  6.4km/h 5.0mph /  8km/h 59% 0.00in /  0mm
09:56 55.8 °F /  13.2 °C 41.7 °F /  5.4 °C 30.39in /  1029hPa WSW 3.0mph /  4.8km/h 4.0mph /  6.4km/h 59% 0.00in /  0mm
10:01 56.0 °F /  13.3 °C 41.9 °F /  5.5 °C 30.38in /  1028.7hPa SW 3.0mph /  4.8km/h 4.0mph /  6.4km/h 59% 0.00in /  0mm
10:06 56.2 °F /  13.4 °C 42.1 °F /  5.6 °C 30.38in /  1028.7hPa SW 2.0mph /  3.2km/h 5.0mph /  8km/h 59% 0.00in /  0mm
10:11 56.8 °F /  13.8 °C 42.2 °F /  5.7 °C 30.38in /  1028.7hPa SW 3.0mph /  4.8km/h 5.0mph /  8km/h 58% 0.00in /  0mm
10:16 57.0 °F /  13.9 °C 42.8 °F /  6 °C 30.38in /  1028.7hPa SW 3.0mph /  4.8km/h 6.0mph /  9.7km/h 59% 0.00in /  0mm
10:21 57.4 °F /  14.1 °C 42.8 °F /  6 °C 30.38in /  1028.7hPa West 1.0mph /  1.6km/h 4.0mph /  6.4km/h 58% 0.00in /  0mm
10:26 57.8 °F /  14.3 °C 43.1 °F /  6.2 °C 30.38in /  1028.7hPa West 2.0mph /  3.2km/h 6.0mph /  9.7km/h 58% 0.00in /  0mm
10:31 58.2 °F /  14.6 °C 44.0 °F /  6.7 °C 30.38in /  1028.7hPa WNW 3.0mph /  4.8km/h 5.0mph /  8km/h 59% 0.00in /  0mm
10:36 58.7 °F /  14.8 °C 44.9 °F /  7.2 °C 30.38in /  1028.7hPa SW 2.0mph /  3.2km/h 4.0mph /  6.4km/h 60% 0.00in /  0mm
10:41 59.3 °F /  15.2 °C 44.5 °F /  6.9 °C 30.38in /  1028.7hPa West 2.0mph /  3.2km/h 6.0mph /  9.7km/h 58% 0.00in /  0mm
10:46 58.9 °F /  14.9 °C 43.7 °F /  6.5 °C 30.38in /  1028.7hPa West 2.0mph /  3.2km/h 6.0mph /  9.7km/h 57% 0.00in /  0mm
10:51 59.0 °F /  15 °C 44.7 °F /  7.1 °C 30.38in /  1028.7hPa West 4.0mph /  6.4km/h 8.0mph /  12.9km/h 59% 0.00in /  0mm
10:57 58.8 °F /  14.9 °C 44.5 °F /  6.9 °C 30.38in /  1028.7hPa West 1.0mph /  1.6km/h 6.0mph /  9.7km/h 59% 0.00in /  0mm
11:02 59.3 °F /  15.2 °C 45.0 °F /  7.2 °C 30.38in /  1028.7hPa SW 8.0mph /  12.9km/h 8.0mph /  12.9km/h 59% 0.00in /  0mm
11:07 59.2 °F /  15.1 °C 44.5 °F /  6.9 °C 30.37in /  1028.3hPa West 2.0mph /  3.2km/h 5.0mph /  8km/h 58% 0.00in /  0mm
11:12 59.8 °F /  15.4 °C 45.0 °F /  7.2 °C 30.37in /  1028.3hPa West 3.0mph /  4.8km/h 4.0mph /  6.4km/h 58% 0.00in /  0mm
11:17 59.9 °F /  15.5 °C 45.1 °F /  7.3 °C 30.37in /  1028.3hPa Calm   5.0mph /  8km/h 58% 0.00in /  0mm
11:22 60.9 °F /  16.1 °C 45.6 °F /  7.6 °C 30.37in /  1028.3hPa Calm   3.0mph /  4.8km/h 57% 0.00in /  0mm
11:27 61.7 °F /  16.5 °C 45.4 °F /  7.4 °C 30.37in /  1028.3hPa West 3.0mph /  4.8km/h 7.0mph /  11.3km/h 55% 0.00in /  0mm
11:32 61.1 °F /  16.2 °C 44.3 °F /  6.8 °C 30.37in /  1028.3hPa West 2.0mph /  3.2km/h 8.0mph /  12.9km/h 54% 0.00in /  0mm
11:37 61.2 °F /  16.2 °C 44.9 °F /  7.2 °C 30.37in /  1028.3hPa North 2.0mph /  3.2km/h 4.0mph /  6.4km/h 55% 0.00in /  0mm
11:42 61.7 °F /  16.5 °C 44.9 °F /  7.2 °C 30.37in /  1028.3hPa SW 2.0mph /  3.2km/h 5.0mph /  8km/h 54% 0.00in /  0mm
11:47 62.3 °F /  16.8 °C 45.0 °F /  7.2 °C 30.37in /  1028.3hPa West 8.0mph /  12.9km/h 9.0mph /  14.5km/h 53% 0.00in /  0mm
11:52 62.0 °F /  16.7 °C 44.7 °F /  7.1 °C 30.37in /  1028.3hPa WNW 3.0mph /  4.8km/h 6.0mph /  9.7km/h 53% 0.00in /  0mm
11:57 62.1 °F /  16.7 °C 45.8 °F /  7.7 °C 30.37in /  1028.3hPa NNW 5.0mph /  8km/h 7.0mph /  11.3km/h 55% 0.00in /  0mm
12:02 62.6 °F /  17 °C 45.2 °F /  7.3 °C 30.36in /  1028hPa NNE 4.0mph /  6.4km/h 7.0mph /  11.3km/h 53% 0.00in /  0mm
12:07 63.0 °F /  17.2 °C 45.6 °F /  7.6 °C 30.36in /  1028hPa NE 1.0mph /  1.6km/h 5.0mph /  8km/h 53% 0.00in /  0mm
12:12 63.6 °F /  17.6 °C 45.2 °F /  7.3 °C 30.36in /  1028hPa WSW 1.0mph /  1.6km/h 5.0mph /  8km/h 51% 0.00in /  0mm
12:17 63.9 °F /  17.7 °C 45.4 °F /  7.4 °C 30.36in /  1028hPa North 5.0mph /  8km/h 7.0mph /  11.3km/h 51% 0.00in /  0mm
12:22 63.7 °F /  17.6 °C 45.8 °F /  7.7 °C 30.36in /  1028hPa WNW 5.0mph /  8km/h 7.0mph /  11.3km/h 52% 0.00in /  0mm
12:27 63.8 °F /  17.7 °C 44.3 °F /  6.8 °C 30.36in /  1028hPa Calm   5.0mph /  8km/h 49% 0.00in /  0mm
12:32 64.1 °F /  17.8 °C 45.1 °F /  7.3 °C 30.35in /  1027.7hPa WNW 8.0mph /  12.9km/h 9.0mph /  14.5km/h 50% 0.00in /  0mm
12:37 64.0 °F /  17.8 °C 44.5 °F /  6.9 °C 30.35in /  1027.7hPa NNW 3.0mph /  4.8km/h 7.0mph /  11.3km/h 49% 0.00in /  0mm
12:42 64.1 °F /  17.8 °C 46.1 °F /  7.8 °C 30.35in /  1027.7hPa NW 3.0mph /  4.8km/h 4.0mph /  6.4km/h 52% 0.00in /  0mm
12:47 64.5 °F /  18.1 °C 44.9 °F /  7.2 °C 30.35in /  1027.7hPa NNW 4.0mph /  6.4km/h 7.0mph /  11.3km/h 49% 0.00in /  0mm
12:52 64.3 °F /  17.9 °C 44.2 °F /  6.8 °C 30.34in /  1027.3hPa NE 4.0mph /  6.4km/h 8.0mph /  12.9km/h 48% 0.00in /  0mm
12:57 64.7 °F /  18.2 °C 42.9 °F /  6.1 °C 30.34in /  1027.3hPa SW 4.0mph /  6.4km/h 7.0mph /  11.3km/h 45% 0.00in /  0mm
13:03 64.7 °F /  18.2 °C 42.9 °F /  6.1 °C 30.34in /  1027.3hPa WNW 2.0mph /  3.2km/h 6.0mph /  9.7km/h 45% 0.00in /  0mm
13:07 64.7 °F /  18.2 °C 41.7 °F /  5.4 °C 30.34in /  1027.3hPa West 4.0mph /  6.4km/h 7.0mph /  11.3km/h 43% 0.00in /  0mm
13:12 65.3 °F /  18.5 °C 42.2 °F /  5.7 °C 30.33in /  1027hPa West 3.0mph /  4.8km/h 4.0mph /  6.4km/h 43% 0.00in /  0mm
13:17 65.8 °F /  18.8 °C 42.1 °F /  5.6 °C 30.33in /  1027hPa NW 3.0mph /  4.8km/h 8.0mph /  12.9km/h 42% 0.00in /  0mm
13:22 65.6 °F /  18.7 °C 43.7 °F /  6.5 °C 30.33in /  1027hPa NNW 4.0mph /  6.4km/h 8.0mph /  12.9km/h 45% 0.00in /  0mm
13:28 65.4 °F /  18.6 °C 42.9 °F /  6.1 °C 30.33in /  1027hPa WNW 2.0mph /  3.2km/h 5.0mph /  8km/h 44% 0.00in /  0mm
13:33 66.0 °F /  18.9 °C 42.9 °F /  6.1 °C 30.32in /  1026.6hPa West 2.0mph /  3.2km/h 4.0mph /  6.4km/h 43% 0.00in /  0mm
13:38 66.3 °F /  19.1 °C 44.3 °F /  6.8 °C 30.32in /  1026.6hPa ENE 3.0mph /  4.8km/h 4.0mph /  6.4km/h 45% 0.00in /  0mm
13:43 66.0 °F /  18.9 °C 42.9 °F /  6.1 °C 30.32in /  1026.6hPa SE 1.0mph /  1.6km/h 6.0mph /  9.7km/h 43% 0.00in /  0mm
13:48 65.3 °F /  18.5 °C 43.4 °F /  6.3 °C 30.32in /  1026.6hPa East 3.0mph /  4.8km/h 5.0mph /  8km/h 45% 0.00in /  0mm
13:53 65.5 °F /  18.6 °C 43.6 °F /  6.4 °C 30.31in /  1026.3hPa SSW 2.0mph /  3.2km/h 4.0mph /  6.4km/h 45% 0.00in /  0mm
13:58 66.3 °F /  19.1 °C 43.8 °F /  6.6 °C 30.31in /  1026.3hPa NNE 3.0mph /  4.8km/h 4.0mph /  6.4km/h 44% 0.00in /  0mm
14:03 65.8 °F /  18.8 °C 43.9 °F /  6.6 °C 30.31in /  1026.3hPa NW 5.0mph /  8km/h 5.0mph /  8km/h 45% 0.00in /  0mm
14:08 65.8 °F /  18.8 °C 42.1 °F /  5.6 °C 30.31in /  1026.3hPa NNE 3.0mph /  4.8km/h 3.0mph /  4.8km/h 42% 0.00in /  0mm
14:13 65.8 °F /  18.8 °C 43.3 °F /  6.3 °C 30.31in /  1026.3hPa North 2.0mph /  3.2km/h 6.0mph /  9.7km/h 44% 0.00in /  0mm
14:18 65.8 °F /  18.8 °C 42.1 °F /  5.6 °C 30.30in /  1026hPa NNW 1.0mph /  1.6km/h 5.0mph /  8km/h 42% 0.00in /  0mm
14:23 66.1 °F /  18.9 °C 43.0 °F /  6.1 °C 30.30in /  1026hPa WNW 6.0mph /  9.7km/h 6.0mph /  9.7km/h 43% 0.00in /  0mm
14:28 66.2 °F /  19 °C 42.5 °F /  5.8 °C 30.30in /  1026hPa North 2.0mph /  3.2km/h 5.0mph /  8km/h 42% 0.00in /  0mm
14:33 66.3 °F /  19.1 °C 41.9 °F /  5.5 °C 30.30in /  1026hPa NE 1.0mph /  1.6km/h 3.0mph /  4.8km/h 41% 0.00in /  0mm
14:38 66.7 °F /  19.3 °C 44.1 °F /  6.7 °C 30.29in /  1025.6hPa NNW 5.0mph /  8km/h 6.0mph /  9.7km/h 44% 0.00in /  0mm
14:44 66.9 °F /  19.4 °C 43.7 °F /  6.5 °C 30.29in /  1025.6hPa NE 8.0mph /  12.9km/h 10.0mph /  16.1km/h 43% 0.00in /  0mm
14:49 66.3 °F /  19.1 °C 43.2 °F /  6.2 °C 30.29in /  1025.6hPa NE 11.0mph /  17.7km/h 11.0mph /  17.7km/h 43% 0.00in /  0mm
14:54 65.7 °F /  18.7 °C 41.4 °F /  5.2 °C 30.29in /  1025.6hPa NNE 5.0mph /  8km/h 9.0mph /  14.5km/h 41% 0.00in /  0mm
14:59 65.6 °F /  18.7 °C 41.9 °F /  5.5 °C 30.29in /  1025.6hPa NE 4.0mph /  6.4km/h 10.0mph /  16.1km/h 42% 0.00in /  0mm
15:04 66.0 °F /  18.9 °C 42.9 °F /  6.1 °C 30.29in /  1025.6hPa NNE 5.0mph /  8km/h 6.0mph /  9.7km/h 43% 0.00in /  0mm
15:09 66.2 °F /  19 °C 41.8 °F /  5.4 °C 30.29in /  1025.6hPa North 6.0mph /  9.7km/h 8.0mph /  12.9km/h 41% 0.00in /  0mm
15:14 66.4 °F /  19.1 °C 42.6 °F /  5.9 °C 30.29in /  1025.6hPa NNW 5.0mph /  8km/h 7.0mph /  11.3km/h 42% 0.00in /  0mm
15:19 66.3 °F /  19.1 °C 41.3 °F /  5.2 °C 30.29in /  1025.6hPa North 6.0mph /  9.7km/h 6.0mph /  9.7km/h 40% 0.00in /  0mm
15:24 66.4 °F /  19.1 °C 41.4 °F /  5.2 °C 30.29in /  1025.6hPa North 5.0mph /  8km/h 7.0mph /  11.3km/h 40% 0.00in /  0mm
15:29 66.4 °F /  19.1 °C 40.7 °F /  4.8 °C 30.29in /  1025.6hPa NNE 1.0mph /  1.6km/h 4.0mph /  6.4km/h 39% 0.00in /  0mm
15:34 66.3 °F /  19.1 °C 41.3 °F /  5.2 °C 30.29in /  1025.6hPa NE 1.0mph /  1.6km/h 8.0mph /  12.9km/h 40% 0.00in /  0mm
15:39 66.3 °F /  19.1 °C 40.0 °F /  4.4 °C 30.29in /  1025.6hPa NE 2.0mph /  3.2km/h 8.0mph /  12.9km/h 38% 0.00in /  0mm
15:44 66.2 °F /  19 °C 41.8 °F /  5.4 °C 30.29in /  1025.6hPa NE 2.0mph /  3.2km/h 8.0mph /  12.9km/h 41% 0.00in /  0mm
15:49 66.3 °F /  19.1 °C 40.6 °F /  4.8 °C 30.29in /  1025.6hPa NE 4.0mph /  6.4km/h 5.0mph /  8km/h 39% 0.00in /  0mm
15:54 66.4 °F /  19.1 °C 41.4 °F /  5.2 °C 30.29in /  1025.6hPa NE 4.0mph /  6.4km/h 8.0mph /  12.9km/h 40% 0.00in /  0mm
15:59 65.9 °F /  18.8 °C 40.9 °F /  4.9 °C 30.29in /  1025.6hPa East 5.0mph /  8km/h 7.0mph /  11.3km/h 40% 0.00in /  0mm
16:04 65.5 °F /  18.6 °C 41.2 °F /  5.1 °C 30.29in /  1025.6hPa East 3.0mph /  4.8km/h 4.0mph /  6.4km/h 41% 0.00in /  0mm
16:09 65.5 °F /  18.6 °C 42.4 °F /  5.8 °C 30.29in /  1025.6hPa East 3.0mph /  4.8km/h 6.0mph /  9.7km/h 43% 0.00in /  0mm
16:14 65.5 °F /  18.6 °C 41.2 °F /  5.1 °C 30.29in /  1025.6hPa NE 4.0mph /  6.4km/h 5.0mph /  8km/h 41% 0.00in /  0mm
16:19 65.7 °F /  18.7 °C 41.4 °F /  5.2 °C 30.29in /  1025.6hPa NNE 3.0mph /  4.8km/h 4.0mph /  6.4km/h 41% 0.00in /  0mm
16:24 65.6 °F /  18.7 °C 40.7 °F /  4.8 °C 30.29in /  1025.6hPa Calm   3.0mph /  4.8km/h 40% 0.00in /  0mm
16:29 65.8 °F /  18.8 °C 42.1 °F /  5.6 °C 30.29in /  1025.6hPa East 1.0mph /  1.6km/h 1.0mph /  1.6km/h 42% 0.00in /  0mm
16:34 66.4 °F /  19.1 °C 42.0 °F /  5.6 °C 30.29in /  1025.6hPa NE 1.0mph /  1.6km/h 3.0mph /  4.8km/h 41% 0.00in /  0mm
16:39 66.6 °F /  19.2 °C 42.2 °F /  5.7 °C 30.29in /  1025.6hPa NNW 2.0mph /  3.2km/h 4.0mph /  6.4km/h 41% 0.00in /  0mm
16:44 66.4 °F /  19.1 °C 42.6 °F /  5.9 °C 30.29in /  1025.6hPa NNE 4.0mph /  6.4km/h 5.0mph /  8km/h 42% 0.00in /  0mm
16:49 66.0 °F /  18.9 °C 41.7 °F /  5.4 °C 30.29in /  1025.6hPa NE 1.0mph /  1.6km/h 4.0mph /  6.4km/h 41% 0.00in /  0mm
16:54 65.8 °F /  18.8 °C 42.1 °F /  5.6 °C 30.29in /  1025.6hPa ENE 5.0mph /  8km/h 5.0mph /  8km/h 42% 0.00in /  0mm
16:59 65.7 °F /  18.7 °C 42.0 °F /  5.6 °C 30.29in /  1025.6hPa NNE 2.0mph /  3.2km/h 5.0mph /  8km/h 42% 0.00in /  0mm
17:04 65.4 °F /  18.6 °C 41.7 °F /  5.4 °C 30.29in /  1025.6hPa NE 2.0mph /  3.2km/h 3.0mph /  4.8km/h 42% 0.00in /  0mm
17:09 65.4 °F /  18.6 °C 41.7 °F /  5.4 °C 30.29in /  1025.6hPa NE 2.0mph /  3.2km/h 3.0mph /  4.8km/h 42% 0.00in /  0mm
17:14 65.4 °F /  18.6 °C 41.1 °F /  5.1 °C 30.29in /  1025.6hPa NE 1.0mph /  1.6km/h 2.0mph /  3.2km/h 41% 0.00in /  0mm
17:19 65.4 °F /  18.6 °C 41.7 °F /  5.4 °C 30.29in /  1025.6hPa NE 3.0mph /  4.8km/h 3.0mph /  4.8km/h 42% 0.00in /  0mm
17:24 65.4 °F /  18.6 °C 42.9 °F /  6.1 °C 30.29in /  1025.6hPa NE 2.0mph /  3.2km/h 3.0mph /  4.8km/h 44% 0.00in /  0mm
17:30 65.2 °F /  18.4 °C 42.2 °F /  5.7 °C 30.29in /  1025.6hPa NNE 1.0mph /  1.6km/h 3.0mph /  4.8km/h 43% 0.00in /  0mm
17:35 65.0 °F /  18.3 °C 43.2 °F /  6.2 °C 30.29in /  1025.6hPa NNE 1.0mph /  1.6km/h 1.0mph /  1.6km/h 45% 0.00in /  0mm
17:40 64.8 °F /  18.2 °C 42.4 °F /  5.8 °C 30.29in /  1025.6hPa NNE 1.0mph /  1.6km/h 2.0mph /  3.2km/h 44% 0.00in /  0mm
17:45 64.6 °F /  18.1 °C 42.2 °F /  5.7 °C 30.29in /  1025.6hPa NNE 2.0mph /  3.2km/h 2.0mph /  3.2km/h 44% 0.00in /  0mm
17:50 64.6 °F /  18.1 °C 42.8 °F /  6 °C 30.29in /  1025.6hPa Calm   1.0mph /  1.6km/h 45% 0.00in /  0mm
17:55 64.7 °F /  18.2 °C 42.3 °F /  5.7 °C 30.29in /  1025.6hPa NNE 1.0mph /  1.6km/h 1.0mph /  1.6km/h 44% 0.00in /  0mm
18:00 64.6 °F /  18.1 °C 42.2 °F /  5.7 °C 30.30in /  1026hPa Calm   1.0mph /  1.6km/h 44% 0.00in /  0mm
18:05 64.5 °F /  18.1 °C 41.5 °F /  5.3 °C 30.30in /  1026hPa Calm     43% 0.00in /  0mm
18:10 64.4 °F /  18 °C 41.4 °F /  5.2 °C 30.30in /  1026hPa Calm     43% 0.00in /  0mm
18:15 64.3 °F /  17.9 °C 41.3 °F /  5.2 °C 30.30in /  1026hPa Calm     43% 0.00in /  0mm
18:20 64.1 °F /  17.8 °C 41.8 °F /  5.4 °C 30.30in /  1026hPa Calm     44% 0.00in /  0mm
18:25 63.8 °F /  17.7 °C 41.5 °F /  5.3 °C 30.30in /  1026hPa NNE 1.0mph /  1.6km/h 1.0mph /  1.6km/h 44% 0.00in /  0mm
18:30 63.6 °F /  17.6 °C 41.3 °F /  5.2 °C 30.30in /  1026hPa Calm     44% 0.00in /  0mm
18:35 63.5 °F /  17.5 °C 41.2 °F /  5.1 °C 30.30in /  1026hPa Calm   1.0mph /  1.6km/h 44% 0.00in /  0mm
18:40 63.1 °F /  17.3 °C 40.9 °F /  4.9 °C 30.30in /  1026hPa Calm     44% 0.00in /  0mm
18:45 62.8 °F /  17.1 °C 40.6 °F /  4.8 °C 30.30in /  1026hPa Calm   1.0mph /  1.6km/h 44% 0.00in /  0mm
18:50 62.5 °F /  16.9 °C 40.9 °F /  4.9 °C 30.30in /  1026hPa Calm     45% 0.00in /  0mm
18:55 62.3 °F /  16.8 °C 40.7 °F /  4.8 °C 30.31in /  1026.3hPa Calm   1.0mph /  1.6km/h 45% 0.00in /  0mm
19:00 61.9 °F /  16.6 °C 40.3 °F /  4.6 °C 30.31in /  1026.3hPa Calm   1.0mph /  1.6km/h 45% 0.00in /  0mm
19:05 61.5 °F /  16.4 °C 40.5 °F /  4.7 °C 30.31in /  1026.3hPa East 1.0mph /  1.6km/h 1.0mph /  1.6km/h 46% 0.00in /  0mm
19:10 61.2 °F /  16.2 °C 40.8 °F /  4.9 °C 30.31in /  1026.3hPa East 1.0mph /  1.6km/h 1.0mph /  1.6km/h 47% 0.00in /  0mm
19:15 61.1 °F /  16.2 °C 40.7 °F /  4.8 °C 30.31in /  1026.3hPa East 2.0mph /  3.2km/h 2.0mph /  3.2km/h 47% 0.00in /  0mm
19:20 61.1 °F /  16.2 °C 40.7 °F /  4.8 °C 30.31in /  1026.3hPa East 1.0mph /  1.6km/h 1.0mph /  1.6km/h 47% 0.00in /  0mm
19:25 61.0 °F /  16.1 °C 40.7 °F /  4.8 °C 30.31in /  1026.3hPa East 1.0mph /  1.6km/h 1.0mph /  1.6km/h 47% 0.00in /  0mm
19:30 60.9 °F /  16.1 °C 41.1 °F /  5.1 °C 30.31in /  1026.3hPa East 1.0mph /  1.6km/h 1.0mph /  1.6km/h 48% 0.00in /  0mm
19:35 60.9 °F /  16.1 °C 41.1 °F /  5.1 °C 30.31in /  1026.3hPa Calm   2.0mph /  3.2km/h 48% 0.00in /  0mm
19:40 60.7 °F /  15.9 °C 41.5 °F /  5.3 °C 30.31in /  1026.3hPa East 1.0mph /  1.6km/h 1.0mph /  1.6km/h 49% 0.00in /  0mm
19:45 60.5 °F /  15.8 °C 41.8 °F /  5.4 °C 30.32in /  1026.6hPa East 2.0mph /  3.2km/h 2.0mph /  3.2km/h 50% 0.00in /  0mm
19:46 60.6 °F /  15.9 °C 41.9 °F /  5.5 °C 30.32in /  1026.6hPa East 1.0mph /  1.6km/h 2.0mph /  3.2km/h 50% 0.00in /  0mm
19:51 60.5 °F /  15.8 °C 41.8 °F /  5.4 °C 30.32in /  1026.6hPa East 1.0mph /  1.6km/h 2.0mph /  3.2km/h 50% 0.00in /  0mm
19:56 60.4 °F /  15.8 °C 41.7 °F /  5.4 °C 30.32in /  1026.6hPa East 1.0mph /  1.6km/h 2.0mph /  3.2km/h 50% 0.00in /  0mm
20:01 60.3 °F /  15.7 °C 42.1 °F /  5.6 °C 30.32in /  1026.6hPa East 2.0mph /  3.2km/h 2.0mph /  3.2km/h 51% 0.00in /  0mm
20:06 60.3 °F /  15.7 °C 42.1 °F /  5.6 °C 30.32in /  1026.6hPa East 1.0mph /  1.6km/h 2.0mph /  3.2km/h 51% 0.00in /  0mm
20:11 60.1 °F /  15.6 °C 41.9 °F /  5.5 °C 30.32in /  1026.6hPa Calm   1.0mph /  1.6km/h 51% 0.00in /  0mm
20:16 59.9 °F /  15.5 °C 42.2 °F /  5.7 °C 30.32in /  1026.6hPa East 1.0mph /  1.6km/h 2.0mph /  3.2km/h 52% 0.00in /  0mm
20:21 59.8 °F /  15.4 °C 42.2 °F /  5.7 °C 30.32in /  1026.6hPa ENE 1.0mph /  1.6km/h 2.0mph /  3.2km/h 52% 0.00in /  0mm
20:26 59.6 °F /  15.3 °C 42.0 °F /  5.6 °C 30.32in /  1026.6hPa SE 2.0mph /  3.2km/h 2.0mph /  3.2km/h 52% 0.00in /  0mm
20:31 58.9 °F /  14.9 °C 42.3 °F /  5.7 °C 30.32in /  1026.6hPa East 2.0mph /  3.2km/h 3.0mph /  4.8km/h 54% 0.00in /  0mm
20:36 58.6 °F /  14.8 °C 42.0 °F /  5.6 °C 30.32in /  1026.6hPa ESE 1.0mph /  1.6km/h 2.0mph /  3.2km/h 54% 0.00in /  0mm
20:41 58.5 °F /  14.7 °C 41.9 °F /  5.5 °C 30.32in /  1026.6hPa East 1.0mph /  1.6km/h 1.0mph /  1.6km/h 54% 0.00in /  0mm
20:46 58.6 °F /  14.8 °C 42.0 °F /  5.6 °C 30.32in /  1026.6hPa East 1.0mph /  1.6km/h 1.0mph /  1.6km/h 54% 0.00in /  0mm
20:51 58.5 °F /  14.7 °C 41.9 °F /  5.5 °C 30.32in /  1026.6hPa Calm   1.0mph /  1.6km/h 54% 0.00in /  0mm
20:56 58.3 °F /  14.6 °C 42.2 °F /  5.7 °C 30.32in /  1026.6hPa East 1.0mph /  1.6km/h 1.0mph /  1.6km/h 55% 0.00in /  0mm
21:01 58.3 °F /  14.6 °C 42.2 °F /  5.7 °C 30.32in /  1026.6hPa East 1.0mph /  1.6km/h 1.0mph /  1.6km/h 55% 0.00in /  0mm
21:06 58.3 °F /  14.6 °C 42.2 °F /  5.7 °C 30.32in /  1026.6hPa ENE 1.0mph /  1.6km/h 2.0mph /  3.2km/h 55% 0.00in /  0mm
21:11 58.3 °F /  14.6 °C 42.2 °F /  5.7 °C 30.32in /  1026.6hPa ENE 1.0mph /  1.6km/h 2.0mph /  3.2km/h 55% 0.00in /  0mm
21:16 58.4 °F /  14.7 °C 42.3 °F /  5.7 °C 30.32in /  1026.6hPa ENE 1.0mph /  1.6km/h 1.0mph /  1.6km/h 55% 0.00in /  0mm
21:22 58.3 °F /  14.6 °C 42.2 °F /  5.7 °C 30.32in /  1026.6hPa ENE 1.0mph /  1.6km/h 1.0mph /  1.6km/h 55% 0.00in /  0mm
21:27 58.1 °F /  14.5 °C 42.5 °F /  5.8 °C 30.32in /  1026.6hPa ENE 1.0mph /  1.6km/h 1.0mph /  1.6km/h 56% 0.00in /  0mm
21:32 58.0 °F /  14.4 °C 42.4 °F /  5.8 °C 30.32in /  1026.6hPa Calm   1.0mph /  1.6km/h 56% 0.00in /  0mm
21:37 57.5 °F /  14.2 °C 42.4 °F /  5.8 °C 30.32in /  1026.6hPa Calm   1.0mph /  1.6km/h 57% 0.00in /  0mm
21:42 57.1 °F /  13.9 °C 42.0 °F /  5.6 °C 30.32in /  1026.6hPa Calm   1.0mph /  1.6km/h 57% 0.00in /  0mm
21:47 56.9 °F /  13.8 °C 42.3 °F /  5.7 °C 30.32in /  1026.6hPa ENE 1.0mph /  1.6km/h 1.0mph /  1.6km/h 58% 0.00in /  0mm
21:52 56.7 °F /  13.7 °C 42.1 °F /  5.6 °C 30.32in /  1026.6hPa Calm   1.0mph /  1.6km/h 58% 0.00in /  0mm
21:57 56.4 °F /  13.6 °C 42.3 °F /  5.7 °C 30.32in /  1026.6hPa Calm   1.0mph /  1.6km/h 59% 0.00in /  0mm
22:02 56.3 °F /  13.5 °C 42.2 °F /  5.7 °C 30.32in /  1026.6hPa Calm     59% 0.00in /  0mm
22:07 55.9 °F /  13.3 °C 42.2 °F /  5.7 °C 30.32in /  1026.6hPa Calm     60% 0.00in /  0mm
22:12 55.2 °F /  12.9 °C 42.0 °F /  5.6 °C 30.32in /  1026.6hPa Calm     61% 0.00in /  0mm
22:17 54.6 °F /  12.6 °C 41.9 °F /  5.5 °C 30.33in /  1027hPa Calm     62% 0.00in /  0mm
22:22 53.9 °F /  12.2 °C 41.6 °F /  5.3 °C 30.33in /  1027hPa Calm     63% 0.00in /  0mm
22:27 53.4 °F /  11.9 °C 41.9 °F /  5.5 °C 30.33in /  1027hPa Calm     65% 0.00in /  0mm
22:32 53.0 °F /  11.7 °C 41.6 °F /  5.3 °C 30.33in /  1027hPa Calm     65% 0.00in /  0mm
22:37 52.5 °F /  11.4 °C 41.9 °F /  5.5 °C 30.32in /  1026.6hPa Calm     67% 0.00in /  0mm
22:42 52.6 °F /  11.4 °C 42.0 °F /  5.6 °C 30.33in /  1027hPa Calm     67% 0.00in /  0mm
22:47 52.8 °F /  11.6 °C 42.2 °F /  5.7 °C 30.33in /  1027hPa Calm     67% 0.00in /  0mm
22:52 54.1 °F /  12.3 °C 42.6 °F /  5.9 °C 30.32in /  1026.6hPa ENE 2.0mph /  3.2km/h 2.0mph /  3.2km/h 65% 0.00in /  0mm
22:57 53.5 °F /  11.9 °C 41.6 °F /  5.3 °C 30.32in /  1026.6hPa NE 3.0mph /  4.8km/h 4.0mph /  6.4km/h 64% 0.00in /  0mm
23:02 52.8 °F /  11.6 °C 42.2 °F /  5.7 °C 30.32in /  1026.6hPa NE 2.0mph /  3.2km/h 3.0mph /  4.8km/h 67% 0.00in /  0mm
23:07 54.6 °F /  12.6 °C 42.7 °F /  5.9 °C 30.32in /  1026.6hPa NE 1.0mph /  1.6km/h 2.0mph /  3.2km/h 64% 0.00in /  0mm
23:12 54.5 °F /  12.5 °C 42.2 °F /  5.7 °C 30.32in /  1026.6hPa NE 2.0mph /  3.2km/h 3.0mph /  4.8km/h 63% 0.00in /  0mm
23:17 53.7 °F /  12.1 °C 42.2 °F /  5.7 °C 30.32in /  1026.6hPa NE 2.0mph /  3.2km/h 2.0mph /  3.2km/h 65% 0.00in /  0mm
23:22 53.7 °F /  12.1 °C 42.2 °F /  5.7 °C 30.32in /  1026.6hPa NE 1.0mph /  1.6km/h 2.0mph /  3.2km/h 65% 0.00in /  0mm
23:27 52.8 °F /  11.6 °C 41.8 °F /  5.4 °C 30.32in /  1026.6hPa NE 2.0mph /  3.2km/h 2.0mph /  3.2km/h 66% 0.00in /  0mm
23:32 52.2 °F /  11.2 °C 42.0 °F /  5.6 °C 30.31in /  1026.3hPa NNE 2.0mph /  3.2km/h 2.0mph /  3.2km/h 68% 0.00in /  0mm
23:37 52.3 °F /  11.3 °C 41.7 °F /  5.4 °C 30.31in /  1026.3hPa NNE 3.0mph /  4.8km/h 3.0mph /  4.8km/h 67% 0.00in /  0mm
23:42 51.6 °F /  10.9 °C 41.4 °F /  5.2 °C 30.32in /  1026.6hPa NE 8.0mph /  12.9km/h 10.0mph /  16.1km/h 68% 0.00in /  0mm
23:47 51.7 °F /  10.9 °C 41.5 °F /  5.3 °C 30.32in /  1026.6hPa NNE 6.0mph /  9.7km/h 8.0mph /  12.9km/h 68% 0.00in /  0mm
23:52 51.5 °F /  10.8 °C 40.9 °F /  4.9 °C 30.32in /  1026.6hPa NNE 6.0mph /  9.7km/h 7.0mph /  11.3km/h 67% 0.00in /  0mm
23:57 51.7 °F /  10.9 °C 41.1 °F /  5.1 °C 30.32in /  1026.6hPa NNE 3.0mph /  4.8km/h 5.0mph /  8km/h 67% 0.00in /  0mm
Compliments of Weather Underground